<?xml version='1.0' encoding='UTF-8'?><gpx version="1.1" creator="JPX - https://github.com/jenetics/jpx" xmlns="http://www.topografix.com/GPX/1/1"><trk><trkseg><trkpt lat="48.38214655985402" lon="-4.0420559899471336"><ele>174.0</ele><time>2026-04-19T13:08:55Z</time></trkpt><trkpt lat="48.38213003279945" lon="-4.041919570123768"><ele>174.0</ele><time>2026-04-19T13:08:56Z</time></trkpt><trkpt lat="48.38211308562728" lon="-4.041754553482973"><ele>174.0</ele><time>2026-04-19T13:08:57Z</time></trkpt><trkpt lat="48.38209136680874" lon="-4.041574487314795"><ele>174.0</ele><time>2026-04-19T13:08:58Z</time></trkpt><trkpt lat="48.38206181138175" lon="-4.0413791676412485"><ele>173.75</ele><time>2026-04-19T13:08:59Z</time></trkpt><trkpt lat="48.38199136308408" lon="-4.041197818815239"><ele>173.5</ele><time>2026-04-19T13:09:00Z</time></trkpt><trkpt lat="48.38192843035578" lon="-4.041009305315101"><ele>173.25</ele><time>2026-04-19T13:09:01Z</time></trkpt><trkpt lat="48.38187618090322" lon="-4.040842617277001"><ele>173.0</ele><time>2026-04-19T13:09:02Z</time></trkpt><trkpt lat="48.381847417599154" lon="-4.040692889130645"><ele>173.4</ele><time>2026-04-19T13:09:02.999Z</time></trkpt><trkpt lat="48.38181345878748" lon="-4.040576295360167"><ele>173.8</ele><time>2026-04-19T13:09:03.999Z</time></trkpt><trkpt lat="48.38178475191529" lon="-4.04046276641809"><ele>174.2</ele><time>2026-04-19T13:09:04.999Z</time></trkpt><trkpt lat="48.381751840552404" lon="-4.040339025126292"><ele>174.6</ele><time>2026-04-19T13:09:05.999Z</time></trkpt><trkpt lat="48.38169931036068" lon="-4.040196957405193"><ele>175.0</ele><time>2026-04-19T13:09:06.999Z</time></trkpt><trkpt lat="48.38163069510279" lon="-4.040053449989492"><ele>175.25</ele><time>2026-04-19T13:09:07.999Z</time></trkpt><trkpt lat="48.38155720715143" lon="-4.039910012338295"><ele>175.5</ele><time>2026-04-19T13:09:08.999Z</time></trkpt><trkpt lat="48.381480533030896" lon="-4.039775935317198"><ele>175.75</ele><time>2026-04-19T13:09:09.999Z</time></trkpt><trkpt lat="48.38141112700067" lon="-4.039629833065663"><ele>176.0</ele><time>2026-04-19T13:09:10.999Z</time></trkpt><trkpt lat="48.38135206849601" lon="-4.039473575611678"><ele>175.5</ele><time>2026-04-19T13:09:11.999Z</time></trkpt><trkpt lat="48.38130542880245" lon="-4.039307833105168"><ele>175.0</ele><time>2026-04-19T13:09:12.999Z</time></trkpt><trkpt lat="48.381281488505145" lon="-4.039149798320993"><ele>174.5</ele><time>2026-04-19T13:09:13.999Z</time></trkpt><trkpt lat="48.381273332277395" lon="-4.0389807904242305"><ele>174.0</ele><time>2026-04-19T13:09:14.999Z</time></trkpt><trkpt lat="48.381249081316156" lon="-4.038818703839172"><ele>174.0</ele><time>2026-04-19T13:09:15.999Z</time></trkpt><trkpt lat="48.38122907569957" lon="-4.038686483762474"><ele>174.0</ele><time>2026-04-19T13:09:16.999Z</time></trkpt><trkpt lat="48.38121187141122" lon="-4.038577509339793"><ele>174.0</ele><time>2026-04-19T13:09:17.999Z</time></trkpt><trkpt lat="48.381170401262295" lon="-4.038431690414083"><ele>174.0</ele><time>2026-04-19T13:09:19.999Z</time></trkpt><trkpt lat="48.381001626145704" lon="-4.0384604575147005"><ele>174.0</ele><time>2026-04-19T13:09:20.999Z</time></trkpt><trkpt lat="48.3808950398858" lon="-4.038437086371264"><ele>174.0</ele><time>2026-04-19T13:09:21.999Z</time></trkpt><trkpt lat="48.38077990042494" lon="-4.038422085841421"><ele>174.0</ele><time>2026-04-19T13:09:22.999Z</time></trkpt><trkpt lat="48.380675153257776" lon="-4.038389566450638"><ele>174.0</ele><time>2026-04-19T13:09:23.999Z</time></trkpt><trkpt lat="48.38056653475822" lon="-4.0383924757958365"><ele>174.0</ele><time>2026-04-19T13:09:24.999Z</time></trkpt><trkpt lat="48.38046415258721" lon="-4.038416055424395"><ele>174.0</ele><time>2026-04-19T13:09:25.999Z</time></trkpt><trkpt lat="48.3803679475143" lon="-4.038398012273511"><ele>173.6</ele><time>2026-04-19T13:09:26.999Z</time></trkpt><trkpt lat="48.38027145893975" lon="-4.038356687519607"><ele>173.2</ele><time>2026-04-19T13:09:27.999Z</time></trkpt><trkpt lat="48.38018384938966" lon="-4.038289433171818"><ele>172.79999999999998</ele><time>2026-04-19T13:09:28.999Z</time></trkpt><trkpt lat="48.38011169568518" lon="-4.038189423454762"><ele>172.39999999999998</ele><time>2026-04-19T13:09:29.999Z</time></trkpt><trkpt lat="48.38004428004466" lon="-4.038061221957317"><ele>172.0</ele><time>2026-04-19T13:09:30.999Z</time></trkpt><trkpt lat="48.379950413627995" lon="-4.037964271425527"><ele>172.0</ele><time>2026-04-19T13:09:31.999Z</time></trkpt><trkpt lat="48.379871264193014" lon="-4.037864168115696"><ele>172.0</ele><time>2026-04-19T13:09:32.999Z</time></trkpt><trkpt lat="48.379794884783685" lon="-4.037770223017821"><ele>172.0</ele><time>2026-04-19T13:09:33.999Z</time></trkpt><trkpt lat="48.37972858972408" lon="-4.037664068387417"><ele>172.0</ele><time>2026-04-19T13:09:34.999Z</time></trkpt><trkpt lat="48.379648144576656" lon="-4.037601296459762"><ele>172.0</ele><time>2026-04-19T13:09:35.999Z</time></trkpt><trkpt lat="48.37958072177221" lon="-4.037511388104669"><ele>172.33333333333334</ele><time>2026-04-19T13:09:36.999Z</time></trkpt><trkpt lat="48.37950457753881" lon="-4.0374061294411865"><ele>172.66666666666666</ele><time>2026-04-19T13:09:37.999Z</time></trkpt><trkpt lat="48.37926892163346" lon="-4.037561010022437"><ele>173.0</ele><time>2026-04-19T13:09:38.999Z</time></trkpt><trkpt lat="48.37910714371988" lon="-4.037581908391016"><ele>171.66666666666666</ele><time>2026-04-19T13:09:39.999Z</time></trkpt><trkpt lat="48.37894140488857" lon="-4.03757617700812"><ele>170.33333333333334</ele><time>2026-04-19T13:09:40.999Z</time></trkpt><trkpt lat="48.37876618244637" lon="-4.037534139422101"><ele>169.0</ele><time>2026-04-19T13:09:41.999Z</time></trkpt><trkpt lat="48.378607093020825" lon="-4.037523118489379"><ele>169.0</ele><time>2026-04-19T13:09:42.999Z</time></trkpt><trkpt lat="48.37846731336254" lon="-4.037536559367656"><ele>169.0</ele><time>2026-04-19T13:09:43.999Z</time></trkpt><trkpt lat="48.378336074395115" lon="-4.037546173578419"><ele>169.0</ele><time>2026-04-19T13:09:44.999Z</time></trkpt><trkpt lat="48.378211240298214" lon="-4.03751970115081"><ele>169.0</ele><time>2026-04-19T13:09:45.999Z</time></trkpt><trkpt lat="48.37808766113536" lon="-4.037448246482802"><ele>168.2</ele><time>2026-04-19T13:09:46.999Z</time></trkpt><trkpt lat="48.377976580430264" lon="-4.037381384692822"><ele>167.39999999999998</ele><time>2026-04-19T13:09:47.999Z</time></trkpt><trkpt lat="48.37787751600249" lon="-4.037310540493969"><ele>166.6</ele><time>2026-04-19T13:09:48.999Z</time></trkpt><trkpt lat="48.37779217785371" lon="-4.037250063544099"><ele>165.8</ele><time>2026-04-19T13:09:49.999Z</time></trkpt><trkpt lat="48.37771518500388" lon="-4.037209864185176"><ele>165.0</ele><time>2026-04-19T13:09:50.999Z</time></trkpt><trkpt lat="48.37763394862" lon="-4.037165150690907"><ele>165.0</ele><time>2026-04-19T13:09:51.999Z</time></trkpt><trkpt lat="48.3775660363061" lon="-4.037129340933102"><ele>165.0</ele><time>2026-04-19T13:09:52.999Z</time></trkpt><trkpt lat="48.377460315229534" lon="-4.037061459462002"><ele>165.0</ele><time>2026-04-19T13:09:54.999Z</time></trkpt><trkpt lat="48.377394761293374" lon="-4.037013817097824"><ele>165.0</ele><time>2026-04-19T13:09:55.999Z</time></trkpt><trkpt lat="48.377326468123314" lon="-4.036983825097064"><ele>165.0</ele><time>2026-04-19T13:09:56.999Z</time></trkpt><trkpt lat="48.37724354739069" lon="-4.036965164356078"><ele>165.0</ele><time>2026-04-19T13:09:57.999Z</time></trkpt><trkpt lat="48.377154044415754" lon="-4.03696089929192"><ele>165.2</ele><time>2026-04-19T13:09:58.999Z</time></trkpt><trkpt lat="48.37704597131069" lon="-4.036982410030858"><ele>165.4</ele><time>2026-04-19T13:09:59.999Z</time></trkpt><trkpt lat="48.37695127634579" lon="-4.037032302942955"><ele>165.60000000000002</ele><time>2026-04-19T13:10:00.999Z</time></trkpt><trkpt lat="48.376877822067925" lon="-4.037087615562098"><ele>165.8</ele><time>2026-04-19T13:10:01.999Z</time></trkpt><trkpt lat="48.3767473913678" lon="-4.03715576203148"><ele>166.0</ele><time>2026-04-19T13:10:03.999Z</time></trkpt><trkpt lat="48.37667063500073" lon="-4.037207368193738"><ele>166.0</ele><time>2026-04-19T13:10:04.999Z</time></trkpt><trkpt lat="48.37657972185811" lon="-4.0372550810552985"><ele>166.0</ele><time>2026-04-19T13:10:05.999Z</time></trkpt><trkpt lat="48.37647455241354" lon="-4.037308290942587"><ele>166.0</ele><time>2026-04-19T13:10:06.999Z</time></trkpt><trkpt lat="48.37636066768803" lon="-4.037368859319456"><ele>166.0</ele><time>2026-04-19T13:10:07.999Z</time></trkpt><trkpt lat="48.37623782941292" lon="-4.037436257375488"><ele>163.75</ele><time>2026-04-19T13:10:08.999Z</time></trkpt><trkpt lat="48.37610120418753" lon="-4.037505531552649"><ele>161.5</ele><time>2026-04-19T13:10:09.999Z</time></trkpt><trkpt lat="48.37596902982482" lon="-4.037597935746798"><ele>159.25</ele><time>2026-04-19T13:10:10.999Z</time></trkpt><trkpt lat="48.37583269236367" lon="-4.037711757967052"><ele>157.0</ele><time>2026-04-19T13:10:11.999Z</time></trkpt><trkpt lat="48.37569398896937" lon="-4.037831698179992"><ele>157.0</ele><time>2026-04-19T13:10:12.999Z</time></trkpt><trkpt lat="48.375556145922744" lon="-4.037949440573079"><ele>157.0</ele><time>2026-04-19T13:10:13.999Z</time></trkpt><trkpt lat="48.375407891164734" lon="-4.038062733515951"><ele>157.0</ele><time>2026-04-19T13:10:14.999Z</time></trkpt><trkpt lat="48.37526663859154" lon="-4.038205961418036"><ele>157.0</ele><time>2026-04-19T13:10:15.999Z</time></trkpt><trkpt lat="48.37514742078523" lon="-4.038362899469856"><ele>157.0</ele><time>2026-04-19T13:10:16.999Z</time></trkpt><trkpt lat="48.37500721188791" lon="-4.0385305547212385"><ele>157.0</ele><time>2026-04-19T13:10:17.999Z</time></trkpt><trkpt lat="48.37486710120874" lon="-4.038684759762831"><ele>157.0</ele><time>2026-04-19T13:10:18.999Z</time></trkpt><trkpt lat="48.37474110218415" lon="-4.038841077849893"><ele>157.0</ele><time>2026-04-19T13:10:20Z</time></trkpt><trkpt lat="48.37460782147199" lon="-4.039000214028597"><ele>157.0</ele><time>2026-04-19T13:10:21Z</time></trkpt><trkpt lat="48.37447614469532" lon="-4.039146593054558"><ele>158.33333333333334</ele><time>2026-04-19T13:10:22Z</time></trkpt><trkpt lat="48.37434767764707" lon="-4.039306947462065"><ele>159.66666666666666</ele><time>2026-04-19T13:10:23Z</time></trkpt><trkpt lat="48.37421525114994" lon="-4.039461016575215"><ele>161.0</ele><time>2026-04-19T13:10:24Z</time></trkpt><trkpt lat="48.37408716071554" lon="-4.0395981078133465"><ele>161.0</ele><time>2026-04-19T13:10:25Z</time></trkpt><trkpt lat="48.373958204011885" lon="-4.039753231981954"><ele>161.0</ele><time>2026-04-19T13:10:26Z</time></trkpt><trkpt lat="48.37383023314582" lon="-4.0398999279951635"><ele>161.0</ele><time>2026-04-19T13:10:27Z</time></trkpt><trkpt lat="48.37371405206109" lon="-4.040083425576701"><ele>162.5</ele><time>2026-04-19T13:10:28Z</time></trkpt><trkpt lat="48.37362029531138" lon="-4.04028477883931"><ele>164.0</ele><time>2026-04-19T13:10:29Z</time></trkpt><trkpt lat="48.37354317822954" lon="-4.040468449212159"><ele>165.5</ele><time>2026-04-19T13:10:30Z</time></trkpt><trkpt lat="48.37344073054595" lon="-4.040610174669969"><ele>167.0</ele><time>2026-04-19T13:10:31Z</time></trkpt><trkpt lat="48.37333524165116" lon="-4.04072170377679"><ele>167.0</ele><time>2026-04-19T13:10:32Z</time></trkpt><trkpt lat="48.37322413312046" lon="-4.040790629247603"><ele>167.0</ele><time>2026-04-19T13:10:33Z</time></trkpt><trkpt lat="48.373086612437675" lon="-4.040835612091976"><ele>167.0</ele><time>2026-04-19T13:10:34Z</time></trkpt><trkpt lat="48.372939882192846" lon="-4.040864542234436"><ele>167.0</ele><time>2026-04-19T13:10:35Z</time></trkpt><trkpt lat="48.37279666859264" lon="-4.040918342470189"><ele>168.0</ele><time>2026-04-19T13:10:36Z</time></trkpt><trkpt lat="48.37264573722964" lon="-4.040979536566506"><ele>169.0</ele><time>2026-04-19T13:10:37Z</time></trkpt><trkpt lat="48.37250410512054" lon="-4.04103131607983"><ele>170.0</ele><time>2026-04-19T13:10:38Z</time></trkpt><trkpt lat="48.37234599622555" lon="-4.041082352300996"><ele>171.33333333333331</ele><time>2026-04-19T13:10:39Z</time></trkpt><trkpt lat="48.372171312333336" lon="-4.04112712265743"><ele>172.66666666666666</ele><time>2026-04-19T13:10:40Z</time></trkpt><trkpt lat="48.372002725862096" lon="-4.04116675808348"><ele>174.0</ele><time>2026-04-19T13:10:41Z</time></trkpt><trkpt lat="48.37184540192651" lon="-4.041205748103325"><ele>174.0</ele><time>2026-04-19T13:10:42Z</time></trkpt><trkpt lat="48.371680085273105" lon="-4.041251562075677"><ele>174.0</ele><time>2026-04-19T13:10:43Z</time></trkpt><trkpt lat="48.37151236188919" lon="-4.0412855156057494"><ele>174.0</ele><time>2026-04-19T13:10:44Z</time></trkpt><trkpt lat="48.3713429813044" lon="-4.041310034203635"><ele>176.33333333333334</ele><time>2026-04-19T13:10:45Z</time></trkpt><trkpt lat="48.37118277348665" lon="-4.04131571817079"><ele>178.66666666666669</ele><time>2026-04-19T13:10:46Z</time></trkpt><trkpt lat="48.37101738646641" lon="-4.041317553321927"><ele>181.0</ele><time>2026-04-19T13:10:47Z</time></trkpt><trkpt lat="48.37084408595998" lon="-4.041325745430494"><ele>181.0</ele><time>2026-04-19T13:10:48Z</time></trkpt><trkpt lat="48.370689130924234" lon="-4.041332808442096"><ele>181.0</ele><time>2026-04-19T13:10:49Z</time></trkpt><trkpt lat="48.37053352957037" lon="-4.04134218204316"><ele>181.0</ele><time>2026-04-19T13:10:50Z</time></trkpt><trkpt lat="48.37039667288308" lon="-4.041352462214635"><ele>181.0</ele><time>2026-04-19T13:10:51Z</time></trkpt><trkpt lat="48.37027286583441" lon="-4.041359243482294"><ele>182.60000000000002</ele><time>2026-04-19T13:10:52Z</time></trkpt><trkpt lat="48.370169864078825" lon="-4.041362587454922"><ele>184.2</ele><time>2026-04-19T13:10:53Z</time></trkpt><trkpt lat="48.37008156263767" lon="-4.041370857089362"><ele>185.8</ele><time>2026-04-19T13:10:54Z</time></trkpt><trkpt lat="48.370017439390665" lon="-4.041409399058053"><ele>187.39999999999998</ele><time>2026-04-19T13:10:55Z</time></trkpt><trkpt lat="48.3699185523932" lon="-4.041407898893588"><ele>189.0</ele><time>2026-04-19T13:10:56.999Z</time></trkpt><trkpt lat="48.36984614205853" lon="-4.041691248219967"><ele>189.0</ele><time>2026-04-19T13:11:08.999Z</time></trkpt><trkpt lat="48.36984567847388" lon="-4.041879089084596"><ele>189.0</ele><time>2026-04-19T13:11:09.999Z</time></trkpt><trkpt lat="48.36984549500821" lon="-4.042096896178375"><ele>189.0</ele><time>2026-04-19T13:11:10.999Z</time></trkpt><trkpt lat="48.369842509559824" lon="-4.042336513100025"><ele>189.0</ele><time>2026-04-19T13:11:11.999Z</time></trkpt><trkpt lat="48.36984864655387" lon="-4.042603829871265"><ele>188.33333333333334</ele><time>2026-04-19T13:11:12.999Z</time></trkpt><trkpt lat="48.36985071695522" lon="-4.042858501273504"><ele>187.66666666666669</ele><time>2026-04-19T13:11:13.999Z</time></trkpt><trkpt lat="48.36985322447785" lon="-4.043153817065966"><ele>187.0</ele><time>2026-04-19T13:11:14.999Z</time></trkpt><trkpt lat="48.36985052255286" lon="-4.043439104766809"><ele>186.33333333333334</ele><time>2026-04-19T13:11:15.999Z</time></trkpt><trkpt lat="48.36983976612924" lon="-4.043733803583435"><ele>185.66666666666666</ele><time>2026-04-19T13:11:16.999Z</time></trkpt><trkpt lat="48.36982115924227" lon="-4.044024060821904"><ele>185.0</ele><time>2026-04-19T13:11:17.999Z</time></trkpt><trkpt lat="48.369814374652044" lon="-4.044322288538265"><ele>184.66666666666666</ele><time>2026-04-19T13:11:18.999Z</time></trkpt><trkpt lat="48.36979321505316" lon="-4.044619023776835"><ele>184.33333333333334</ele><time>2026-04-19T13:11:19.999Z</time></trkpt><trkpt lat="48.36976928649519" lon="-4.044910780202614"><ele>184.0</ele><time>2026-04-19T13:11:20.999Z</time></trkpt><trkpt lat="48.369744527560016" lon="-4.0452080819767575"><ele>184.66666666666669</ele><time>2026-04-19T13:11:21.999Z</time></trkpt><trkpt lat="48.36971866669499" lon="-4.045499027184416"><ele>185.33333333333334</ele><time>2026-04-19T13:11:22.999Z</time></trkpt><trkpt lat="48.369677069447356" lon="-4.045783378201428"><ele>186.0</ele><time>2026-04-19T13:11:23.999Z</time></trkpt><trkpt lat="48.36965468512078" lon="-4.0460746315667455"><ele>187.0</ele><time>2026-04-19T13:11:24.999Z</time></trkpt><trkpt lat="48.36962927300548" lon="-4.046360871453115"><ele>188.0</ele><time>2026-04-19T13:11:25.999Z</time></trkpt><trkpt lat="48.36960081526909" lon="-4.046639978639216"><ele>189.0</ele><time>2026-04-19T13:11:26.999Z</time></trkpt><trkpt lat="48.36955918599984" lon="-4.04690957409302"><ele>189.0</ele><time>2026-04-19T13:11:27.999Z</time></trkpt><trkpt lat="48.369501522129845" lon="-4.047173247192101"><ele>189.0</ele><time>2026-04-19T13:11:28.999Z</time></trkpt><trkpt lat="48.36944216454597" lon="-4.047424056497518"><ele>189.0</ele><time>2026-04-19T13:11:29.999Z</time></trkpt><trkpt lat="48.36939021668358" lon="-4.047650177406491"><ele>188.75</ele><time>2026-04-19T13:11:30.999Z</time></trkpt><trkpt lat="48.36936715931692" lon="-4.047908335096085"><ele>188.5</ele><time>2026-04-19T13:11:31.999Z</time></trkpt><trkpt lat="48.36935956642961" lon="-4.048095331513045"><ele>188.25</ele><time>2026-04-19T13:11:32.999Z</time></trkpt><trkpt lat="48.36936081167025" lon="-4.048242628479729"><ele>188.0</ele><time>2026-04-19T13:11:33.999Z</time></trkpt><trkpt lat="48.36936965008308" lon="-4.048349862175736"><ele>188.0</ele><time>2026-04-19T13:11:34.999Z</time></trkpt><trkpt lat="48.369230043490965" lon="-4.0484065591004095"><ele>188.0</ele><time>2026-04-19T13:11:37.999Z</time></trkpt><trkpt lat="48.36916237062781" lon="-4.048341281815853"><ele>188.0</ele><time>2026-04-19T13:11:38.999Z</time></trkpt><trkpt lat="48.36907808435497" lon="-4.048291011285587"><ele>188.0</ele><time>2026-04-19T13:11:39.999Z</time></trkpt><trkpt lat="48.368965442484566" lon="-4.048241671904597"><ele>188.0</ele><time>2026-04-19T13:11:40.999Z</time></trkpt><trkpt lat="48.3688349395955" lon="-4.048191074378163"><ele>191.0</ele><time>2026-04-19T13:11:41.999Z</time></trkpt><trkpt lat="48.368695249829784" lon="-4.048168814834808"><ele>194.0</ele><time>2026-04-19T13:11:42.999Z</time></trkpt><trkpt lat="48.36854576638791" lon="-4.0481502362627655"><ele>197.0</ele><time>2026-04-19T13:11:43.999Z</time></trkpt><trkpt lat="48.36838187674419" lon="-4.048147006381622"><ele>197.0</ele><time>2026-04-19T13:11:44.999Z</time></trkpt><trkpt lat="48.36824366802062" lon="-4.048173887494127"><ele>197.0</ele><time>2026-04-19T13:11:45.999Z</time></trkpt><trkpt lat="48.368150618391525" lon="-4.048257497799318"><ele>197.0</ele><time>2026-04-19T13:11:46.999Z</time></trkpt><trkpt lat="48.36808705384486" lon="-4.048386795626149"><ele>197.0</ele><time>2026-04-19T13:11:47.999Z</time></trkpt><trkpt lat="48.368054950759294" lon="-4.048557938881174"><ele>202.0</ele><time>2026-04-19T13:11:48.999Z</time></trkpt><trkpt lat="48.367994093892754" lon="-4.048754400395346"><ele>207.0</ele><time>2026-04-19T13:11:49.999Z</time></trkpt><trkpt lat="48.36791988375508" lon="-4.048928419589162"><ele>212.0</ele><time>2026-04-19T13:11:50.999Z</time></trkpt><trkpt lat="48.36783481592459" lon="-4.049082547134519"><ele>217.0</ele><time>2026-04-19T13:11:51.999Z</time></trkpt><trkpt lat="48.36774783418743" lon="-4.049221580041948"><ele>217.0</ele><time>2026-04-19T13:11:52.999Z</time></trkpt><trkpt lat="48.36765478262176" lon="-4.049346417703707"><ele>217.0</ele><time>2026-04-19T13:11:53.999Z</time></trkpt><trkpt lat="48.367549438795706" lon="-4.049425517203205"><ele>217.0</ele><time>2026-04-19T13:11:54.999Z</time></trkpt><trkpt lat="48.367443648811715" lon="-4.049472887006599"><ele>217.0</ele><time>2026-04-19T13:11:55.999Z</time></trkpt><trkpt lat="48.36733135780664" lon="-4.049477152258907"><ele>217.0</ele><time>2026-04-19T13:11:56.999Z</time></trkpt><trkpt lat="48.36723237732064" lon="-4.049438064738694"><ele>217.0</ele><time>2026-04-19T13:11:57.999Z</time></trkpt><trkpt lat="48.36715404747717" lon="-4.049345827631663"><ele>217.0</ele><time>2026-04-19T13:11:58.999Z</time></trkpt><trkpt lat="48.3670937926975" lon="-4.049208921415405"><ele>217.0</ele><time>2026-04-19T13:11:59.999Z</time></trkpt><trkpt lat="48.36703340549691" lon="-4.049070078110583"><ele>217.0</ele><time>2026-04-19T13:12:00.999Z</time></trkpt><trkpt lat="48.366966958219834" lon="-4.048969070826343"><ele>220.0</ele><time>2026-04-19T13:12:01.999Z</time></trkpt><trkpt lat="48.36690777517055" lon="-4.0488789198114485"><ele>223.0</ele><time>2026-04-19T13:12:02.999Z</time></trkpt><trkpt lat="48.36685093564731" lon="-4.048811413991929"><ele>226.0</ele><time>2026-04-19T13:12:03.999Z</time></trkpt><trkpt lat="48.36673926304549" lon="-4.048814593268272"><ele>229.0</ele><time>2026-04-19T13:12:05.999Z</time></trkpt><trkpt lat="48.36668193314253" lon="-4.048984986254184"><ele>232.0</ele><time>2026-04-19T13:12:07.999Z</time></trkpt><trkpt lat="48.366628629993855" lon="-4.049082167181694"><ele>232.0</ele><time>2026-04-19T13:12:08.999Z</time></trkpt><trkpt lat="48.36659628012478" lon="-4.049234584426937"><ele>232.0</ele><time>2026-04-19T13:12:09.999Z</time></trkpt><trkpt lat="48.36656407836657" lon="-4.0493535134164516"><ele>232.0</ele><time>2026-04-19T13:12:10.999Z</time></trkpt><trkpt lat="48.366522704885305" lon="-4.049530084655782"><ele>232.0</ele><time>2026-04-19T13:12:12.999Z</time></trkpt><trkpt lat="48.36649496783517" lon="-4.0496527724192015"><ele>232.0</ele><time>2026-04-19T13:12:13.999Z</time></trkpt><trkpt lat="48.36645318100147" lon="-4.049820450360461"><ele>231.99999999999997</ele><time>2026-04-19T13:12:15.999Z</time></trkpt><trkpt lat="48.366429602745704" lon="-4.049918185740475"><ele>232.0</ele><time>2026-04-19T13:12:16.999Z</time></trkpt><trkpt lat="48.366397324495125" lon="-4.050024843367125"><ele>232.0</ele><time>2026-04-19T13:12:17.999Z</time></trkpt><trkpt lat="48.36634397037277" lon="-4.050172127579418"><ele>232.0</ele><time>2026-04-19T13:12:19.999Z</time></trkpt><trkpt lat="48.366301687594046" lon="-4.050252439713722"><ele>231.99999999999997</ele><time>2026-04-19T13:12:20.999Z</time></trkpt><trkpt lat="48.366257661731076" lon="-4.05033173540395"><ele>232.0</ele><time>2026-04-19T13:12:21.999Z</time></trkpt><trkpt lat="48.36617014532035" lon="-4.050447977063882"><ele>232.2</ele><time>2026-04-19T13:12:22.999Z</time></trkpt><trkpt lat="48.366095861532955" lon="-4.0505314558107655"><ele>232.39999999999998</ele><time>2026-04-19T13:12:23.999Z</time></trkpt><trkpt lat="48.36602395176893" lon="-4.050606372960979"><ele>232.60000000000002</ele><time>2026-04-19T13:12:24.999Z</time></trkpt><trkpt lat="48.36596684751194" lon="-4.050662938532732"><ele>232.8</ele><time>2026-04-19T13:12:25.999Z</time></trkpt><trkpt lat="48.36586639096832" lon="-4.050748283099851"><ele>233.0</ele><time>2026-04-19T13:12:26.999Z</time></trkpt><trkpt lat="48.365736271538736" lon="-4.050835810848241"><ele>233.0</ele><time>2026-04-19T13:12:27.999Z</time></trkpt><trkpt lat="48.36560434790314" lon="-4.050895385510332"><ele>233.0</ele><time>2026-04-19T13:12:28.999Z</time></trkpt><trkpt lat="48.36545887260196" lon="-4.050943518076005"><ele>233.0</ele><time>2026-04-19T13:12:29.999Z</time></trkpt><trkpt lat="48.36534036848765" lon="-4.050966117926211"><ele>233.0</ele><time>2026-04-19T13:12:30.999Z</time></trkpt><trkpt lat="48.36525603708303" lon="-4.050977509299415"><ele>233.0</ele><time>2026-04-19T13:12:31.999Z</time></trkpt><trkpt lat="48.365155507854084" lon="-4.0509910886530855"><ele>233.0</ele><time>2026-04-19T13:12:32.999Z</time></trkpt><trkpt lat="48.365071080910504" lon="-4.0510023770716215"><ele>233.0</ele><time>2026-04-19T13:12:33.999Z</time></trkpt><trkpt lat="48.364980658470344" lon="-4.051013646569993"><ele>233.0</ele><time>2026-04-19T13:12:34.999Z</time></trkpt><trkpt lat="48.364871380203105" lon="-4.051026015062174"><ele>233.0</ele><time>2026-04-19T13:12:35.999Z</time></trkpt><trkpt lat="48.36477695813303" lon="-4.051036112979999"><ele>233.60000000000002</ele><time>2026-04-19T13:12:36.999Z</time></trkpt><trkpt lat="48.36468331540168" lon="-4.051046127551047"><ele>234.20000000000002</ele><time>2026-04-19T13:12:37.999Z</time></trkpt><trkpt lat="48.36456050845513" lon="-4.051059459525247"><ele>234.8</ele><time>2026-04-19T13:12:39.999Z</time></trkpt><trkpt lat="48.36446121481113" lon="-4.051070537688945"><ele>235.4</ele><time>2026-04-19T13:12:41.999Z</time></trkpt><trkpt lat="48.36437226313032" lon="-4.051080461996003"><ele>236.0</ele><time>2026-04-19T13:12:42.999Z</time></trkpt><trkpt lat="48.36429690064397" lon="-4.051088870162162"><ele>236.0</ele><time>2026-04-19T13:12:43.999Z</time></trkpt><trkpt lat="48.3641761476769" lon="-4.051102342536712"><ele>236.00000000000003</ele><time>2026-04-19T13:12:45.999Z</time></trkpt><trkpt lat="48.36409386134984" lon="-4.051111523193607"><ele>236.00000000000003</ele><time>2026-04-19T13:12:47Z</time></trkpt><trkpt lat="48.364014843527954" lon="-4.05112033918239"><ele>236.0</ele><time>2026-04-19T13:12:48Z</time></trkpt><trkpt lat="48.36390456015238" lon="-4.0511317261657425"><ele>236.0</ele><time>2026-04-19T13:12:50Z</time></trkpt><trkpt lat="48.36382961978502" lon="-4.051138972044784"><ele>236.60000000000002</ele><time>2026-04-19T13:12:51Z</time></trkpt><trkpt lat="48.36373306879871" lon="-4.051148307422071"><ele>237.20000000000002</ele><time>2026-04-19T13:12:53Z</time></trkpt><trkpt lat="48.3636588658423" lon="-4.051155481999356"><ele>237.79999999999998</ele><time>2026-04-19T13:12:55Z</time></trkpt><trkpt lat="48.363590947658366" lon="-4.051162048910789"><ele>238.39999999999998</ele><time>2026-04-19T13:12:56Z</time></trkpt><trkpt lat="48.36349033624061" lon="-4.051171128448236"><ele>239.0</ele><time>2026-04-19T13:12:57.999Z</time></trkpt><trkpt lat="48.363388705952744" lon="-4.050412894429482"><ele>239.33333333333334</ele><time>2026-04-19T13:13:01.999Z</time></trkpt><trkpt lat="48.363279308962014" lon="-4.050401142800603"><ele>239.66666666666669</ele><time>2026-04-19T13:13:03.999Z</time></trkpt><trkpt lat="48.363210547669524" lon="-4.050372501813585"><ele>240.0</ele><time>2026-04-19T13:13:05.999Z</time></trkpt><trkpt lat="48.36310926127762" lon="-4.050339824195051"><ele>240.33333333333331</ele><time>2026-04-19T13:13:07.999Z</time></trkpt><trkpt lat="48.363029320820495" lon="-4.050349408369964"><ele>240.66666666666666</ele><time>2026-04-19T13:13:08.999Z</time></trkpt><trkpt lat="48.36296259316889" lon="-4.050334368719942"><ele>241.0</ele><time>2026-04-19T13:13:09.999Z</time></trkpt><trkpt lat="48.362823195872615" lon="-4.050365452885656"><ele>241.8</ele><time>2026-04-19T13:13:11.999Z</time></trkpt><trkpt lat="48.36272492376092" lon="-4.050373039554303"><ele>242.60000000000002</ele><time>2026-04-19T13:13:12.999Z</time></trkpt><trkpt lat="48.36262026461738" lon="-4.050370364215852"><ele>243.4</ele><time>2026-04-19T13:13:13.999Z</time></trkpt><trkpt lat="48.362536986202336" lon="-4.050340570474061"><ele>244.2</ele><time>2026-04-19T13:13:14.999Z</time></trkpt><trkpt lat="48.362464724736114" lon="-4.0503075993145075"><ele>245.0</ele><time>2026-04-19T13:13:15.999Z</time></trkpt><trkpt lat="48.36236340983109" lon="-4.0502266876816035"><ele>245.0</ele><time>2026-04-19T13:13:16.999Z</time></trkpt><trkpt lat="48.362269073047294" lon="-4.050183734138193"><ele>245.0</ele><time>2026-04-19T13:13:17.999Z</time></trkpt><trkpt lat="48.36217812788043" lon="-4.050180779774477"><ele>245.0</ele><time>2026-04-19T13:13:18.999Z</time></trkpt><trkpt lat="48.36207704103693" lon="-4.050182830549923"><ele>245.0</ele><time>2026-04-19T13:13:19.999Z</time></trkpt><trkpt lat="48.36201229225831" lon="-4.050204683761135"><ele>245.0</ele><time>2026-04-19T13:13:20.999Z</time></trkpt><trkpt lat="48.36189621372274" lon="-4.050194054649254"><ele>245.4</ele><time>2026-04-19T13:13:22.999Z</time></trkpt><trkpt lat="48.361775551497644" lon="-4.050166971523457"><ele>245.8</ele><time>2026-04-19T13:13:23.999Z</time></trkpt><trkpt lat="48.36166164006661" lon="-4.050140586669925"><ele>246.2</ele><time>2026-04-19T13:13:24.999Z</time></trkpt><trkpt lat="48.361569721891186" lon="-4.050109646773256"><ele>246.6</ele><time>2026-04-19T13:13:25.999Z</time></trkpt><trkpt lat="48.36148778748726" lon="-4.050109271849192"><ele>247.0</ele><time>2026-04-19T13:13:26.999Z</time></trkpt><trkpt lat="48.36138970638326" lon="-4.050120147103526"><ele>247.0</ele><time>2026-04-19T13:13:27.999Z</time></trkpt><trkpt lat="48.36130065488972" lon="-4.050113126601923"><ele>247.0</ele><time>2026-04-19T13:13:28.999Z</time></trkpt><trkpt lat="48.361208330790966" lon="-4.050079711533008"><ele>247.0</ele><time>2026-04-19T13:13:29.999Z</time></trkpt><trkpt lat="48.361108666273225" lon="-4.0500431223387885"><ele>247.0</ele><time>2026-04-19T13:13:30.999Z</time></trkpt><trkpt lat="48.361015796389516" lon="-4.050021317636658"><ele>247.0</ele><time>2026-04-19T13:13:31.999Z</time></trkpt><trkpt lat="48.360932267882994" lon="-4.049987140657301"><ele>247.16666666666666</ele><time>2026-04-19T13:13:32.999Z</time></trkpt><trkpt lat="48.36084459241897" lon="-4.049947094640735"><ele>247.33333333333331</ele><time>2026-04-19T13:13:33.999Z</time></trkpt><trkpt lat="48.360761160232386" lon="-4.049895757586178"><ele>247.5</ele><time>2026-04-19T13:13:34.999Z</time></trkpt><trkpt lat="48.36068609733393" lon="-4.049860360373108"><ele>247.66666666666669</ele><time>2026-04-19T13:13:35.999Z</time></trkpt><trkpt lat="48.360604068602456" lon="-4.049846218372292"><ele>247.83333333333334</ele><time>2026-04-19T13:13:36.999Z</time></trkpt><trkpt lat="48.360501855247215" lon="-4.04985029970528"><ele>248.0</ele><time>2026-04-19T13:13:37.999Z</time></trkpt><trkpt lat="48.36038998478909" lon="-4.049851725456318"><ele>248.0</ele><time>2026-04-19T13:13:38.999Z</time></trkpt><trkpt lat="48.36028485486601" lon="-4.0498626759407985"><ele>248.0</ele><time>2026-04-19T13:13:39.999Z</time></trkpt><trkpt lat="48.36018784223478" lon="-4.049878068163318"><ele>248.0</ele><time>2026-04-19T13:13:40.999Z</time></trkpt><trkpt lat="48.36007846295054" lon="-4.049900611454995"><ele>248.0</ele><time>2026-04-19T13:13:41.999Z</time></trkpt><trkpt lat="48.35996267785175" lon="-4.049928902407823"><ele>248.0</ele><time>2026-04-19T13:13:42.999Z</time></trkpt><trkpt lat="48.3598363695135" lon="-4.049942693046835"><ele>248.0</ele><time>2026-04-19T13:13:43.999Z</time></trkpt><trkpt lat="48.3597172643449" lon="-4.049952324234424"><ele>248.0</ele><time>2026-04-19T13:13:44.999Z</time></trkpt><trkpt lat="48.35960561330089" lon="-4.049971381712261"><ele>248.0</ele><time>2026-04-19T13:13:45.999Z</time></trkpt><trkpt lat="48.35949722844053" lon="-4.049975086149825"><ele>248.0</ele><time>2026-04-19T13:13:46.999Z</time></trkpt><trkpt lat="48.359395830512746" lon="-4.049971641703387"><ele>248.0</ele><time>2026-04-19T13:13:47.999Z</time></trkpt><trkpt lat="48.359325921906574" lon="-4.049993445094351"><ele>246.5</ele><time>2026-04-19T13:13:48.999Z</time></trkpt><trkpt lat="48.359212586962656" lon="-4.050021197359712"><ele>245.0</ele><time>2026-04-19T13:13:50.999Z</time></trkpt><trkpt lat="48.3591361616846" lon="-4.050056791600973"><ele>243.5</ele><time>2026-04-19T13:13:52.999Z</time></trkpt><trkpt lat="48.358994453714594" lon="-4.0501362980371285"><ele>242.0</ele><time>2026-04-19T13:13:54.999Z</time></trkpt><trkpt lat="48.358878017436425" lon="-4.050179856905286"><ele>241.39999999999998</ele><time>2026-04-19T13:13:55.999Z</time></trkpt><trkpt lat="48.358756101385396" lon="-4.050220400757885"><ele>240.79999999999998</ele><time>2026-04-19T13:13:56.999Z</time></trkpt><trkpt lat="48.35866683179654" lon="-4.050216978004468"><ele>240.2</ele><time>2026-04-19T13:13:57.999Z</time></trkpt><trkpt lat="48.35856007620824" lon="-4.050231671975169"><ele>239.6</ele><time>2026-04-19T13:13:58.999Z</time></trkpt><trkpt lat="48.35845326435539" lon="-4.050246280021175"><ele>239.0</ele><time>2026-04-19T13:13:59.999Z</time></trkpt><trkpt lat="48.35835693155508" lon="-4.050279807060534"><ele>239.00000000000003</ele><time>2026-04-19T13:14:00.999Z</time></trkpt><trkpt lat="48.35827812007768" lon="-4.050306266817244"><ele>239.0</ele><time>2026-04-19T13:14:01.999Z</time></trkpt><trkpt lat="48.358208004545524" lon="-4.050317404121438"><ele>239.0</ele><time>2026-04-19T13:14:02.999Z</time></trkpt><trkpt lat="48.35812365932213" lon="-4.050347007139198"><ele>239.0</ele><time>2026-04-19T13:14:04.999Z</time></trkpt><trkpt lat="48.35804532193084" lon="-4.050377797077679"><ele>239.00000000000003</ele><time>2026-04-19T13:14:07.999Z</time></trkpt><trkpt lat="48.357974092347646" lon="-4.0503269624518685"><ele>239.0</ele><time>2026-04-19T13:14:08.999Z</time></trkpt><trkpt lat="48.35788124884651" lon="-4.05030414027038"><ele>239.39999999999998</ele><time>2026-04-19T13:14:09.999Z</time></trkpt><trkpt lat="48.3578029859415" lon="-4.0502628664153635"><ele>239.79999999999998</ele><time>2026-04-19T13:14:10.999Z</time></trkpt><trkpt lat="48.35773938552895" lon="-4.050229325182722"><ele>240.20000000000002</ele><time>2026-04-19T13:14:11.999Z</time></trkpt><trkpt lat="48.357655152891304" lon="-4.050184903002378"><ele>240.60000000000002</ele><time>2026-04-19T13:14:13.999Z</time></trkpt><trkpt lat="48.35769483017689" lon="-4.04997756901775"><ele>241.0</ele><time>2026-04-19T13:14:14.999Z</time></trkpt><trkpt lat="48.35771296070841" lon="-4.049860348651586"><ele>241.0</ele><time>2026-04-19T13:14:16.999Z</time></trkpt></trkseg></trk></gpx>